Time;durP1;ratioP1;P1;durP2;ratioP2;P2;SDS_P1;SDS_P2;PMS_P1;PMS_P2;Temp;Humidity;BMP_temperature;BMP_pressure;BME280_temperature;BME280_humidity;BME280_pressure;Samples;Min_cycle;Max_cycle;Signal;HPM_P1;HPM_P2
2022/03/01 00:02:24;;;;;;;11.07;8.63;;;2.80;99.30;;;;;;5014771;28;20411;-67
2022/03/01 00:04:50;;;;;;;10.63;8.70;;;2.80;99.10;;;;;;5014831;28;20541;-69
2022/03/01 00:07:16;;;;;;;14.57;9.60;;;2.70;99.30;;;;;;5014880;28;20619;-68
2022/03/01 00:09:42;;;;;;;13.77;9.27;;;2.70;99.40;;;;;;5014626;28;20425;-68
2022/03/01 00:12:08;;;;;;;12.37;10.27;;;2.60;99.10;;;;;;5014731;28;20527;-68
2022/03/01 00:14:33;;;;;;;16.00;9.23;;;2.50;99.30;;;;;;5014410;28;20501;-68
2022/03/01 00:16:59;;;;;;;12.27;9.70;;;2.40;99.60;;;;;;5033511;28;20413;-67
2022/03/01 00:19:27;;;;;;;12.80;10.07;;;2.50;99.60;;;;;;5053982;28;20289;-68
2022/03/01 00:21:53;;;;;;;12.73;9.43;;;2.50;99.40;;;;;;5057833;28;20182;-69
2022/03/01 00:24:19;;;;;;;14.20;10.00;;;2.40;99.60;;;;;;5058400;28;20744;-68
2022/03/01 00:26:45;;;;;;;13.93;9.23;;;2.40;99.60;;;;;;5057721;28;20566;-68
2022/03/01 00:29:10;;;;;;;14.83;10.53;;;2.40;99.80;;;;;;5058363;28;20662;-67
2022/03/01 00:31:36;;;;;;;12.77;9.57;;;2.40;99.80;;;;;;5058242;28;20181;-67
2022/03/01 00:34:01;;;;;;;13.00;10.00;;;2.30;99.90;;;;;;5058562;28;20174;-67
2022/03/01 00:36:27;;;;;;;15.40;9.60;;;2.30;99.80;;;;;;5058241;28;20185;-67
2022/03/01 00:38:53;;;;;;;12.63;9.27;;;2.20;99.90;;;;;;5057424;28;20294;-68
2022/03/01 00:41:18;;;;;;;12.07;9.20;;;2.20;99.90;;;;;;5057972;28;20213;-68
2022/03/01 00:43:44;;;;;;;13.40;10.17;;;2.30;99.90;;;;;;5057981;28;20170;-67
2022/03/01 00:46:09;;;;;;;13.10;10.83;;;2.30;99.90;;;;;;5056764;28;20232;-67
2022/03/01 00:48:35;;;;;;;14.23;9.90;;;2.30;99.90;;;;;;5058788;28;20189;-67
2022/03/01 00:51:00;;;;;;;14.63;9.53;;;2.40;99.90;;;;;;5058088;28;20175;-68
2022/03/01 00:53:26;;;;;;;15.20;11.37;;;2.40;99.90;;;;;;5057947;28;20197;-67
2022/03/01 00:55:52;;;;;;;15.30;10.43;;;2.40;99.90;;;;;;5057816;28;20261;-69
2022/03/01 00:58:17;;;;;;;17.40;11.40;;;2.40;99.80;;;;;;5057804;28;20201;-68
2022/03/01 01:00:43;;;;;;;12.77;9.50;;;2.40;99.90;;;;;;5057758;28;20169;-68
2022/03/01 01:03:08;;;;;;;15.10;11.97;;;2.40;99.90;;;;;;5057024;28;20541;-68
2022/03/01 01:05:34;;;;;;;15.67;11.17;;;2.40;99.90;;;;;;5057557;28;20208;-68
2022/03/01 01:08:00;;;;;;;14.53;10.90;;;2.40;99.90;;;;;;5057740;28;20249;-68
2022/03/01 01:10:26;;;;;;;15.47;10.50;;;2.40;99.90;;;;;;5057596;28;20602;-68
2022/03/01 01:12:51;;;;;;;14.53;11.03;;;2.40;99.90;;;;;;5057440;28;20245;-68
2022/03/01 01:15:19;;;;;;;14.57;10.30;;;2.30;99.90;;;;;;5057056;28;20475;-68
2022/03/01 01:17:45;;;;;;;13.37;10.50;;;2.30;99.90;;;;;;5056765;28;20202;-68
2022/03/01 01:20:12;;;;;;;14.70;11.13;;;2.20;99.90;;;;;;5057338;28;20401;-68
2022/03/01 01:22:40;;;;;;;11.70;10.20;;;2.30;99.90;;;;;;5056795;28;20424;-68
2022/03/01 01:25:09;;;;;;;16.00;10.63;;;2.30;99.90;;;;;;5056827;28;20484;-68
2022/03/01 01:27:42;;;;;;;13.90;10.80;;;2.30;99.90;;;;;;5056648;28;20488;-67
2022/03/01 01:30:14;;;;;;;18.53;11.53;;;2.30;99.90;;;;;;5056598;28;20480;-67
2022/03/01 01:32:42;;;;;;;18.10;12.37;;;2.30;99.90;;;;;;5055225;28;20894;-67
2022/03/01 01:35:10;;;;;;;14.37;10.50;;;2.10;99.90;;;;;;5056238;28;20489;-67
2022/03/01 01:37:36;;;;;;;16.70;11.53;;;2.20;99.90;;;;;;5056154;28;20460;-67
2022/03/01 01:40:03;;;;;;;14.10;10.97;;;2.20;99.90;;;;;;5057361;28;20390;-68
2022/03/01 01:42:29;;;;;;;18.03;11.80;;;2.10;99.90;;;;;;5056761;28;20492;-67
2022/03/01 01:44:54;;;;;;;13.07;10.07;;;2.10;99.90;;;;;;5056908;28;20433;-66
2022/03/01 01:47:20;;;;;;;14.37;10.90;;;2.20;99.90;;;;;;5039044;28;20182;-67
2022/03/01 01:49:45;;;;;;;12.83;11.00;;;2.10;99.90;;;;;;5036796;28;20202;-66
2022/03/01 01:52:11;;;;;;;16.87;11.10;;;2.10;99.90;;;;;;5034484;28;20178;-67
2022/03/01 01:54:37;;;;;;;16.43;12.07;;;2.10;99.90;;;;;;5036770;28;20647;-67
2022/03/01 01:57:16;;;;;;;16.53;12.50;;;2.10;99.90;;;;;;5037096;28;20175;-69
2022/03/01 01:59:42;;;;;;;15.70;11.20;;;2.00;99.90;;;;;;5037112;28;20293;-68
2022/03/01 02:02:13;;;;;;;21.17;12.20;;;1.90;99.90;;;;;;5032250;28;20410;-68
2022/03/01 02:04:40;;;;;;;16.53;11.30;;;1.80;99.90;;;;;;5025881;28;20740;-68
2022/03/01 02:07:06;;;;;;;16.93;11.40;;;1.80;99.90;;;;;;5016654;28;20403;-68
2022/03/01 02:09:32;;;;;;;16.17;12.00;;;1.70;99.90;;;;;;5016573;28;20431;-68
2022/03/01 02:11:58;;;;;;;16.30;11.80;;;1.70;99.90;;;;;;5016186;28;20410;-68
2022/03/01 02:14:23;;;;;;;17.27;12.47;;;1.60;99.90;;;;;;5016171;28;20414;-68
2022/03/01 02:16:49;;;;;;;17.50;10.83;;;1.60;99.90;;;;;;5027554;28;20174;-68
2022/03/01 02:19:15;;;;;;;16.23;11.87;;;1.50;99.90;;;;;;5055604;28;20567;-68
2022/03/01 02:21:49;;;;;;;14.63;10.87;;;1.50;99.90;;;;;;5055663;28;20647;-68
2022/03/01 02:24:15;;;;;;;16.60;12.20;;;1.50;99.90;;;;;;5054826;28;20535;-68
2022/03/01 02:26:42;;;;;;;15.77;12.03;;;1.50;99.90;;;;;;5055740;28;20870;-67
2022/03/01 02:29:08;;;;;;;16.20;11.77;;;1.40;99.90;;;;;;5055714;28;20492;-68
2022/03/01 02:31:34;;;;;;;17.27;10.97;;;1.40;99.90;;;;;;5055298;28;20400;-66
2022/03/01 02:33:59;;;;;;;19.17;13.03;;;1.40;99.90;;;;;;5055352;28;20787;-69
2022/03/01 02:36:25;;;;;;;16.10;11.17;;;1.40;99.90;;;;;;5055448;28;20266;-68
2022/03/01 02:38:50;;;;;;;14.57;11.10;;;1.40;99.90;;;;;;5054998;28;20209;-68
2022/03/01 02:41:16;;;;;;;16.80;11.87;;;1.40;99.90;;;;;;5053833;28;20240;-68
2022/03/01 02:43:41;;;;;;;14.73;11.60;;;1.50;99.90;;;;;;5053726;28;20193;-68
2022/03/01 02:46:07;;;;;;;17.83;11.70;;;1.40;99.90;;;;;;5054624;28;20253;-68
2022/03/01 02:48:33;;;;;;;16.20;13.50;;;1.40;99.90;;;;;;5052978;28;20204;-68
2022/03/01 02:50:58;;;;;;;18.33;12.20;;;1.30;99.90;;;;;;5054680;28;20245;-68
2022/03/01 02:53:24;;;;;;;15.80;12.73;;;1.30;99.90;;;;;;5054368;28;20168;-67
2022/03/01 02:55:49;;;;;;;21.67;12.63;;;1.30;99.90;;;;;;5053992;28;20204;-67
2022/03/01 02:58:16;;;;;;;14.47;11.23;;;1.20;99.90;;;;;;5054193;28;20298;-67
2022/03/01 03:00:44;;;;;;;13.07;10.57;;;1.20;99.90;;;;;;5054350;28;20547;-67
2022/03/01 03:03:12;;;;;;;14.87;11.13;;;1.30;99.90;;;;;;5053681;28;20409;-67
2022/03/01 03:05:38;;;;;;;17.10;11.03;;;1.20;99.90;;;;;;5054194;28;20411;-67
2022/03/01 03:08:05;;;;;;;16.43;11.37;;;1.30;99.90;;;;;;5054161;28;20424;-67
2022/03/01 03:10:33;;;;;;;15.57;11.23;;;1.20;99.90;;;;;;5054190;28;20258;-68
2022/03/01 03:13:03;;;;;;;14.33;11.77;;;1.20;99.90;;;;;;5053991;28;20530;-68
2022/03/01 03:15:28;;;;;;;15.07;10.60;;;1.20;99.90;;;;;;5053680;28;20408;-68
2022/03/01 03:17:54;;;;;;;16.60;12.80;;;1.20;99.90;;;;;;5053349;28;20459;-68
2022/03/01 03:20:21;;;;;;;15.70;10.83;;;1.20;99.90;;;;;;5053983;28;20636;-68
2022/03/01 03:22:47;;;;;;;16.23;12.60;;;1.30;99.90;;;;;;5053818;28;20455;-67
2022/03/01 03:25:13;;;;;;;14.50;10.90;;;1.20;99.90;;;;;;5054044;28;20869;-68
2022/03/01 03:27:39;;;;;;;15.30;11.20;;;1.20;99.90;;;;;;5053511;28;20225;-68
2022/03/01 03:30:07;;;;;;;14.93;11.50;;;1.20;99.90;;;;;;5054169;28;20415;-68
2022/03/01 03:32:33;;;;;;;15.17;12.13;;;1.20;99.90;;;;;;5053528;28;20768;-68
2022/03/01 03:34:59;;;;;;;16.50;12.40;;;1.20;99.90;;;;;;5052205;28;20417;-68
2022/03/01 03:37:24;;;;;;;17.13;11.30;;;1.20;99.90;;;;;;5053482;28;20725;-68
2022/03/01 03:39:50;;;;;;;14.37;11.07;;;1.30;99.90;;;;;;5053553;28;20414;-68
2022/03/01 03:42:15;;;;;;;15.63;11.07;;;1.20;99.90;;;;;;5053824;28;20174;-68
2022/03/01 03:44:41;;;;;;;16.50;11.40;;;1.20;99.90;;;;;;5053629;28;20186;-68
2022/03/01 03:47:07;;;;;;;14.40;11.33;;;1.10;99.90;;;;;;5052401;28;20167;-68
2022/03/01 03:49:32;;;;;;;15.27;11.70;;;1.20;99.90;;;;;;5053203;28;20202;-68
2022/03/01 03:51:59;;;;;;;14.90;11.20;;;1.10;99.90;;;;;;5053576;28;20405;-68
2022/03/01 03:54:25;;;;;;;15.10;12.20;;;1.20;99.90;;;;;;5026469;28;20661;-68
2022/03/01 03:56:51;;;;;;;13.97;11.40;;;1.10;99.90;;;;;;5013231;28;20413;-68
2022/03/01 03:59:17;;;;;;;18.10;11.97;;;1.00;99.90;;;;;;5013501;28;20461;-68
2022/03/01 04:01:42;;;;;;;17.17;11.30;;;1.10;99.90;;;;;;5014294;28;20903;-68
2022/03/01 04:04:08;;;;;;;15.40;11.40;;;1.10;99.90;;;;;;5012394;28;20175;-68
2022/03/01 04:06:38;;;;;;;17.40;11.23;;;1.10;99.90;;;;;;5013506;28;20250;-68
2022/03/01 04:09:04;;;;;;;13.40;9.83;;;1.10;99.90;;;;;;5013572;28;20183;-68
2022/03/01 04:11:30;;;;;;;13.60;11.10;;;1.00;99.90;;;;;;5013230;28;20958;-68
2022/03/01 04:13:55;;;;;;;13.40;10.60;;;1.10;99.90;;;;;;5013396;28;20494;-68
2022/03/01 04:16:21;;;;;;;15.00;10.87;;;1.10;99.90;;;;;;5014024;28;20182;-68
2022/03/01 04:18:47;;;;;;;14.20;10.93;;;1.10;99.90;;;;;;5050784;28;20267;-68
2022/03/01 04:21:14;;;;;;;15.27;10.60;;;1.00;99.90;;;;;;5053061;28;20401;-67
2022/03/01 04:23:39;;;;;;;13.90;10.40;;;0.90;99.90;;;;;;5052951;28;20166;-68
2022/03/01 04:26:05;;;;;;;15.33;11.23;;;0.90;99.90;;;;;;5052789;28;20400;-68
2022/03/01 04:28:31;;;;;;;14.60;11.53;;;0.90;99.90;;;;;;5052779;28;20278;-67
2022/03/01 04:30:57;;;;;;;16.13;10.70;;;1.00;99.90;;;;;;5052810;28;20407;-68
2022/03/01 04:33:23;;;;;;;13.83;11.40;;;0.90;99.90;;;;;;5052336;28;20842;-67
2022/03/01 04:35:49;;;;;;;17.57;12.70;;;1.00;99.90;;;;;;5052453;28;20167;-67
2022/03/01 04:38:15;;;;;;;14.53;11.07;;;1.00;99.90;;;;;;5072459;22;20544;-67
2022/03/01 04:40:40;;;;;;;16.80;12.30;;;1.00;99.90;;;;;;5030659;28;20443;-67
2022/03/01 04:43:06;;;;;;;15.97;10.93;;;1.00;99.90;;;;;;5032525;28;20170;-67
2022/03/01 04:45:32;;;;;;;15.10;11.03;;;1.00;99.90;;;;;;5031882;28;20176;-67
2022/03/01 04:47:59;;;;;;;15.23;11.60;;;0.90;99.90;;;;;;5032352;28;20202;-68
2022/03/01 04:50:25;;;;;;;17.40;12.10;;;0.80;99.90;;;;;;5032778;28;20404;-67
2022/03/01 04:52:52;;;;;;;15.90;11.50;;;0.80;99.90;;;;;;5032361;28;20407;-67
2022/03/01 04:55:18;;;;;;;15.13;10.10;;;0.90;99.90;;;;;;5022069;28;20509;-68
2022/03/01 04:57:44;;;;;;;16.20;11.70;;;0.80;99.90;;;;;;5002810;28;20578;-68
2022/03/01 05:00:11;;;;;;;85.40;44.67;;;0.80;99.90;;;;;;5002881;28;20225;-68
2022/03/01 05:02:43;;;;;;;16.03;13.17;;;0.90;99.90;;;;;;4993423;28;20174;-67
2022/03/01 05:05:10;;;;;;;17.43;12.60;;;1.00;99.90;;;;;;4992982;28;20518;-67
2022/03/01 05:07:46;;;;;;;17.67;12.27;;;1.10;99.90;;;;;;4994510;28;20406;-67
2022/03/01 05:10:17;;;;;;;14.00;11.53;;;1.10;99.90;;;;;;4996390;28;20442;-67
2022/03/01 05:12:54;;;;;;;13.83;10.83;;;1.00;99.90;;;;;;4996713;28;20379;-67
2022/03/01 05:15:22;;;;;;;13.17;11.17;;;1.00;99.90;;;;;;5000779;28;20410;-67
2022/03/01 05:17:49;;;;;;;17.33;12.40;;;0.80;99.90;;;;;;5015599;28;20530;-67
2022/03/01 05:20:16;;;;;;;15.30;10.93;;;0.80;99.90;;;;;;5016096;28;20814;-67
2022/03/01 05:22:43;;;;;;;13.97;11.50;;;0.70;99.90;;;;;;5016045;28;20407;-67
2022/03/01 05:25:12;;;;;;;16.93;12.07;;;0.60;99.90;;;;;;5015826;28;20484;-67
2022/03/01 05:27:40;;;;;;;17.50;11.43;;;0.60;99.90;;;;;;5015994;28;20419;-67
2022/03/01 05:30:08;;;;;;;15.67;11.33;;;0.60;99.90;;;;;;5015652;28;20435;-67
2022/03/01 05:32:35;;;;;;;15.33;12.00;;;0.70;99.90;;;;;;5015331;28;20415;-68
2022/03/01 05:35:02;;;;;;;13.43;10.60;;;0.70;99.90;;;;;;5015603;28;20483;-68
2022/03/01 05:37:28;;;;;;;15.27;12.17;;;0.70;99.90;;;;;;5016335;28;20426;-68
2022/03/01 05:39:53;;;;;;;15.93;12.30;;;0.60;99.90;;;;;;5015511;28;20953;-67
2022/03/01 05:42:19;;;;;;;15.70;10.77;;;0.60;99.90;;;;;;5015500;28;20453;-68
2022/03/01 05:44:44;;;;;;;18.60;11.80;;;0.50;99.90;;;;;;5015443;28;20163;-67
2022/03/01 05:47:10;;;;;;;16.40;11.73;;;0.50;99.90;;;;;;5027337;28;20250;-68
2022/03/01 05:49:36;;;;;;;17.00;11.87;;;0.50;99.90;;;;;;5014464;28;20230;-68
2022/03/01 05:52:02;;;;;;;17.80;12.30;;;0.40;99.90;;;;;;5015555;28;20178;-68
2022/03/01 05:54:28;;;;;;;14.00;11.23;;;0.40;99.90;;;;;;5015648;28;20418;-68
2022/03/01 05:56:53;;;;;;;18.30;11.77;;;0.40;99.90;;;;;;5015524;28;20491;-68
2022/03/01 05:59:19;;;;;;;15.07;11.07;;;0.40;99.90;;;;;;5015121;28;20233;-68
2022/03/01 06:01:45;;;;;;;15.33;11.77;;;0.40;99.90;;;;;;5015023;28;20163;-68
2022/03/01 06:04:10;;;;;;;16.10;12.50;;;0.40;99.90;;;;;;5014747;28;20181;-68
2022/03/01 06:06:36;;;;;;;16.97;12.60;;;0.40;99.90;;;;;;5013737;28;20299;-68
2022/03/01 06:09:01;;;;;;;15.87;11.70;;;0.30;99.90;;;;;;5014805;28;20198;-68
2022/03/01 06:11:27;;;;;;;19.30;13.53;;;0.40;99.90;;;;;;5014871;28;20176;-68
2022/03/01 06:13:52;;;;;;;16.27;11.53;;;0.40;99.90;;;;;;5015118;28;20170;-68
2022/03/01 06:16:18;;;;;;;15.30;11.73;;;0.50;99.90;;;;;;5015083;28;20176;-67
2022/03/01 06:18:44;;;;;;;14.27;12.07;;;0.60;99.90;;;;;;5012926;28;20552;-67
2022/03/01 06:21:10;;;;;;;15.63;11.57;;;0.60;99.90;;;;;;5014644;28;20174;-66
2022/03/01 06:23:35;;;;;;;21.10;13.27;;;0.70;99.90;;;;;;5014877;28;20262;-67
2022/03/01 06:26:01;;;;;;;18.47;13.07;;;0.60;99.90;;;;;;5014841;28;20571;-67
2022/03/01 06:28:27;;;;;;;17.23;13.73;;;0.80;99.90;;;;;;5014844;28;20479;-67
2022/03/01 06:30:53;;;;;;;18.23;13.57;;;0.80;99.90;;;;;;5014880;28;20220;-67
2022/03/01 06:33:18;;;;;;;18.53;14.10;;;0.80;99.90;;;;;;5014955;28;20501;-67
2022/03/01 06:35:44;;;;;;;17.60;12.57;;;0.90;99.90;;;;;;5015225;28;20694;-67
2022/03/01 06:38:10;;;;;;;19.27;12.37;;;1.00;99.90;;;;;;5014791;28;20217;-67
2022/03/01 06:40:36;;;;;;;18.87;12.80;;;1.00;99.90;;;;;;5014783;28;20403;-68
2022/03/01 06:43:02;;;;;;;17.60;13.00;;;1.00;99.90;;;;;;5014986;28;20226;-68
2022/03/01 06:45:28;;;;;;;19.93;12.47;;;0.90;99.90;;;;;;5014633;28;20173;-67
2022/03/01 06:47:53;;;;;;;15.10;11.97;;;1.00;99.90;;;;;;5023007;28;20769;-68
2022/03/01 06:50:19;;;;;;;17.80;12.20;;;1.00;99.90;;;;;;5034239;28;20169;-68
2022/03/01 06:52:45;;;;;;;23.07;14.77;;;1.00;99.90;;;;;;5034151;28;20177;-68
2022/03/01 06:55:10;;;;;;;19.50;12.87;;;1.10;99.90;;;;;;5034152;28;20169;-68
2022/03/01 06:57:40;;;;;;;15.63;11.43;;;1.10;99.90;;;;;;5032655;28;20716;-67
2022/03/01 07:00:08;;;;;;;14.10;11.70;;;1.10;99.90;;;;;;5034120;28;20523;-67
2022/03/01 07:02:38;;;;;;;19.60;13.40;;;1.00;99.90;;;;;;5033867;28;20498;-67
2022/03/01 07:05:05;;;;;;;20.40;14.70;;;1.00;99.90;;;;;;5034744;28;20815;-67
2022/03/01 07:07:31;;;;;;;19.63;13.30;;;1.00;99.90;;;;;;5034117;28;20469;-67
2022/03/01 07:09:57;;;;;;;19.03;13.20;;;1.00;99.90;;;;;;5033695;28;20424;-67
2022/03/01 07:12:23;;;;;;;22.03;14.70;;;1.00;99.90;;;;;;5033272;28;20221;-67
2022/03/01 07:14:48;;;;;;;18.03;12.70;;;1.00;99.90;;;;;;5033594;28;20433;-67
2022/03/01 07:17:16;;;;;;;17.43;12.37;;;1.00;99.90;;;;;;5033398;28;20670;-67
2022/03/01 07:19:42;;;;;;;17.20;12.57;;;1.10;99.90;;;;;;5033115;28;20260;-67
2022/03/01 07:22:08;;;;;;;19.67;12.67;;;1.10;99.90;;;;;;5033887;28;20409;-68
2022/03/01 07:24:33;;;;;;;16.00;13.03;;;1.20;99.90;;;;;;5033643;28;20413;-68
2022/03/01 07:26:59;;;;;;;17.60;13.23;;;1.30;99.90;;;;;;5034714;28;20170;-67
2022/03/01 07:29:25;;;;;;;17.23;12.67;;;1.40;99.90;;;;;;5033583;28;20194;-67
2022/03/01 07:31:50;;;;;;;17.13;12.30;;;1.30;99.90;;;;;;5033128;28;20180;-68
2022/03/01 07:34:16;;;;;;;12.90;11.47;;;1.30;99.90;;;;;;5033561;28;20174;-66
2022/03/01 07:36:42;;;;;;;15.47;11.80;;;1.20;99.90;;;;;;5033983;28;20171;-68
2022/03/01 07:39:07;;;;;;;17.90;12.30;;;1.50;99.90;;;;;;5033584;28;20563;-67
2022/03/01 07:41:33;;;;;;;14.67;11.47;;;1.60;99.90;;;;;;5033891;28;20217;-66
2022/03/01 07:43:59;;;;;;;12.93;10.80;;;1.70;99.90;;;;;;5033356;28;20163;-67
2022/03/01 07:46:24;;;;;;;17.13;11.30;;;1.70;99.90;;;;;;5004946;28;20176;-67
2022/03/01 07:48:50;;;;;;;17.83;12.27;;;1.60;99.80;;;;;;5003658;28;20746;-67
2022/03/01 07:51:15;;;;;;;16.70;12.23;;;1.60;99.90;;;;;;5003872;28;20179;-67
2022/03/01 07:53:41;;;;;;;15.27;12.20;;;1.70;99.90;;;;;;5004940;28;20180;-67
2022/03/01 07:56:07;;;;;;;15.17;11.10;;;1.90;99.70;;;;;;5002762;28;20191;-66
2022/03/01 07:58:33;;;;;;;15.23;11.63;;;1.90;99.40;;;;;;5004099;28;20574;-67
2022/03/01 08:00:59;;;;;;;16.73;11.13;;;1.80;99.30;;;;;;5006264;28;20205;-67
2022/03/01 08:03:24;;;;;;;17.83;11.60;;;1.90;99.30;;;;;;5010217;28;21475;-66
2022/03/01 08:05:51;;;;;;;14.70;11.73;;;2.00;99.20;;;;;;5011944;28;20183;-67
2022/03/01 08:08:17;;;;;;;12.63;10.90;;;2.20;99.10;;;;;;5013057;28;20184;-67
2022/03/01 08:10:42;;;;;;;15.00;11.20;;;2.30;98.80;;;;;;5013050;28;20407;-67
2022/03/01 08:13:08;;;;;;;14.80;10.83;;;2.10;98.30;;;;;;5013121;28;20767;-67
2022/03/01 08:15:34;;;;;;;20.50;12.00;;;2.20;98.30;;;;;;5013076;28;20175;-67
2022/03/01 08:18:00;;;;;;;15.03;12.77;;;2.30;98.40;;;;;;5012462;28;20201;-68
2022/03/01 08:20:27;;;;;;;13.97;11.10;;;2.30;98.30;;;;;;5013037;28;20407;-67
2022/03/01 08:22:53;;;;;;;14.50;10.70;;;2.30;98.10;;;;;;5013052;28;20187;-67
2022/03/01 08:25:19;;;;;;;16.23;12.70;;;2.40;98.10;;;;;;5012593;28;20395;-67
2022/03/01 08:27:46;;;;;;;15.90;11.70;;;2.70;98.10;;;;;;5012702;28;20514;-67
2022/03/01 08:30:12;;;;;;;12.73;11.13;;;2.70;97.40;;;;;;5013054;28;20435;-67
2022/03/01 08:32:38;;;;;;;19.10;12.60;;;2.50;97.20;;;;;;5012588;28;20498;-67
2022/03/01 08:35:05;;;;;;;16.00;11.90;;;2.50;96.90;;;;;;5012868;28;20407;-67
2022/03/01 08:37:31;;;;;;;13.63;11.73;;;2.50;96.90;;;;;;5013045;28;20421;-69
2022/03/01 08:39:56;;;;;;;15.47;11.70;;;2.60;97.10;;;;;;5012737;28;20442;-67
2022/03/01 08:42:22;;;;;;;15.03;11.63;;;2.60;97.00;;;;;;5013987;28;20421;-67
2022/03/01 08:44:48;;;;;;;15.03;11.47;;;2.60;96.70;;;;;;5016561;28;20251;-67
2022/03/01 08:47:13;;;;;;;16.23;12.07;;;2.60;96.60;;;;;;5031625;28;20171;-68
2022/03/01 08:49:39;;;;;;;14.20;11.60;;;2.70;96.60;;;;;;5036599;28;20194;-67
2022/03/01 08:52:04;;;;;;;16.50;12.43;;;2.70;96.50;;;;;;5035161;28;20167;-68
2022/03/01 08:54:30;;;;;;;15.97;12.13;;;2.90;96.40;;;;;;5036350;28;20198;-68
2022/03/01 08:56:56;;;;;;;14.27;11.37;;;3.00;96.30;;;;;;5036596;28;20167;-68
2022/03/01 08:59:22;;;;;;;13.87;11.03;;;3.10;95.80;;;;;;5034767;28;20211;-67
2022/03/01 09:01:48;;;;;;;14.60;11.80;;;3.10;95.90;;;;;;5035954;28;20201;-67
2022/03/01 09:04:13;;;;;;;14.50;11.47;;;3.20;95.60;;;;;;5035913;28;20447;-67
2022/03/01 09:06:39;;;;;;;13.53;11.70;;;3.30;95.20;;;;;;5036191;28;20225;-68
2022/03/01 09:09:05;;;;;;;15.60;10.47;;;3.20;95.10;;;;;;5036287;28;20652;-68
2022/03/01 09:11:30;;;;;;;13.73;11.07;;;3.40;95.10;;;;;;5036267;28;20246;-68
2022/03/01 09:13:56;;;;;;;14.37;11.30;;;3.60;94.90;;;;;;5036328;28;20254;-68
2022/03/01 09:16:22;;;;;;;15.30;10.87;;;3.60;94.20;;;;;;5035840;28;20183;-68
2022/03/01 09:18:47;;;;;;;13.40;11.40;;;3.60;94.40;;;;;;5035585;28;20207;-67
2022/03/01 09:21:14;;;;;;;15.07;11.77;;;3.70;94.10;;;;;;5034653;28;20206;-67
2022/03/01 09:23:42;;;;;;;11.67;9.70;;;3.90;94.30;;;;;;5035946;28;20214;-67
2022/03/01 09:26:08;;;;;;;13.20;10.57;;;4.00;94.00;;;;;;5035844;28;20398;-67
2022/03/01 09:28:34;;;;;;;13.30;11.17;;;4.00;93.30;;;;;;5036143;28;20517;-68
2022/03/01 09:31:00;;;;;;;14.83;11.27;;;3.90;93.40;;;;;;5035852;28;20452;-67
2022/03/01 09:33:26;;;;;;;15.30;11.17;;;4.00;93.40;;;;;;5035658;28;20180;-67
2022/03/01 09:35:52;;;;;;;11.57;10.37;;;4.10;93.20;;;;;;5035726;28;20914;-67
2022/03/01 09:38:18;;;;;;;16.33;10.67;;;4.20;93.00;;;;;;5035497;28;20226;-67
2022/03/01 09:40:47;;;;;;;12.30;10.20;;;4.10;92.40;;;;;;5035564;28;20155;-68
2022/03/01 09:43:13;;;;;;;13.10;10.60;;;4.00;92.60;;;;;;5035451;28;20489;-68
2022/03/01 09:45:39;;;;;;;11.63;10.00;;;3.90;92.20;;;;;;5035595;28;20441;-67
2022/03/01 09:48:05;;;;;;;14.07;11.17;;;4.00;92.60;;;;;;5033887;28;20465;-67
2022/03/01 09:50:31;;;;;;;13.47;10.30;;;4.00;92.00;;;;;;5035243;28;20547;-68
2022/03/01 09:52:59;;;;;;;14.40;10.07;;;4.10;92.30;;;;;;5035201;28;20183;-68
2022/03/01 09:55:26;;;;;;;16.97;12.00;;;4.30;92.40;;;;;;5035309;28;20418;-68
2022/03/01 09:57:51;;;;;;;14.60;10.63;;;4.50;91.60;;;;;;5012178;28;20860;-67
2022/03/01 10:00:17;;;;;;;13.53;10.90;;;4.50;91.80;;;;;;5015709;28;20490;-68
2022/03/01 10:02:44;;;;;;;14.60;10.17;;;4.40;91.00;;;;;;5015341;28;20268;-68
2022/03/01 10:05:13;;;;;;;12.67;9.80;;;4.50;91.10;;;;;;5015608;28;20426;-68
2022/03/01 10:07:45;;;;;;;15.63;11.07;;;4.60;90.70;;;;;;5015575;28;20411;-67
2022/03/01 10:10:16;;;;;;;12.93;9.77;;;4.60;90.60;;;;;;5015096;28;20442;-66
2022/03/01 10:12:43;;;;;;;14.40;10.47;;;4.60;90.10;;;;;;5015405;28;20383;-67
2022/03/01 10:15:10;;;;;;;12.70;11.00;;;4.70;90.10;;;;;;5015387;28;20403;-67
2022/03/01 10:17:39;;;;;;;13.80;10.40;;;5.10;89.90;;;;;;5014916;28;20426;-67
2022/03/01 10:20:12;;;;;;;12.83;8.93;;;5.10;89.10;;;;;;5015003;28;20458;-68
2022/03/01 10:22:49;;;;;;;15.67;11.33;;;5.50;89.70;;;;;;5015190;28;20410;-68
2022/03/01 10:25:18;;;;;;;14.10;9.73;;;5.40;87.80;;;;;;5015012;28;20415;-68
2022/03/01 10:27:48;;;;;;;11.73;9.73;;;5.40;86.70;;;;;;5014798;28;20490;-68
2022/03/01 10:30:27;;;;;;;11.10;9.30;;;5.40;86.90;;;;;;5014434;28;20470;-67
2022/03/01 10:33:07;;;;;;;14.97;9.73;;;5.60;86.30;;;;;;5014503;28;20873;-67
2022/03/01 10:35:33;;;;;;;13.10;9.83;;;5.70;86.40;;;;;;5015069;28;20377;-67
2022/03/01 10:38:04;;;;;;;13.60;9.53;;;6.00;86.80;;;;;;5014882;28;20449;-66
2022/03/01 10:40:30;;;;;;;14.83;10.50;;;6.00;84.60;;;;;;5064880;22;20839;-67
2022/03/01 10:43:01;;;;;;;12.20;9.93;;;6.00;83.60;;;;;;5059569;28;20401;-68
2022/03/01 10:45:51;;;;;;;11.70;9.20;;;6.10;84.10;;;;;;5051230;28;20418;-69
2022/03/01 10:48:34;;;;;;;13.90;10.03;;;6.20;83.10;;;;;;5057192;28;20429;-68
2022/03/01 10:51:02;;;;;;;11.50;9.50;;;6.20;82.20;;;;;;5040728;28;20465;-68
2022/03/01 10:53:30;;;;;;;13.57;9.93;;;6.40;81.30;;;;;;5039536;28;20436;-69
2022/03/01 10:56:00;;;;;;;12.10;9.67;;;6.40;81.10;;;;;;5038795;28;20796;-67
2022/03/01 10:58:27;;;;;;;13.90;11.10;;;6.60;82.30;;;;;;5042074;28;20513;-68
2022/03/01 11:00:53;;;;;;;13.67;10.27;;;6.70;80.20;;;;;;5043644;28;20406;-67
2022/03/01 11:03:19;;;;;;;13.00;9.80;;;6.80;81.60;;;;;;5042019;28;20904;-68
2022/03/01 11:05:47;;;;;;;12.90;10.30;;;7.00;80.00;;;;;;5042852;28;20203;-67
2022/03/01 11:08:15;;;;;;;14.27;10.60;;;7.20;79.40;;;;;;5044188;28;20419;-66
2022/03/01 11:10:41;;;;;;;11.73;9.73;;;7.10;78.10;;;;;;5043963;28;20423;-67
2022/03/01 11:13:08;;;;;;;12.37;10.73;;;7.10;77.10;;;;;;5040426;28;20410;-67
2022/03/01 11:15:48;;;;;;;15.23;11.20;;;7.00;76.40;;;;;;5037140;28;20410;-66
2022/03/01 11:18:43;;;;;;;11.20;9.30;;;7.20;77.20;;;;;;5039154;28;20814;-67
2022/03/01 11:21:09;;;;;;;11.57;10.37;;;7.60;76.80;;;;;;5003052;28;20450;-67
2022/03/01 11:23:35;;;;;;;11.00;8.70;;;8.10;75.80;;;;;;5038010;28;20409;-68
2022/03/01 11:26:13;;;;;;;11.27;9.50;;;9.40;71.50;;;;;;5037910;28;20528;-66
2022/03/01 11:28:42;;;;;;;11.47;9.83;;;11.40;64.70;;;;;;5038690;28;20175;-67
2022/03/01 11:31:28;;;;;;;11.87;9.07;;;12.00;62.20;;;;;;5037949;28;20498;-67
2022/03/01 11:34:00;;;;;;;10.50;9.40;;;13.30;55.60;;;;;;5041050;28;20483;-68
2022/03/01 11:36:29;;;;;;;10.57;9.33;;;14.60;52.20;;;;;;5041638;28;20411;-67
2022/03/01 11:39:06;;;;;;;11.13;9.67;;;14.70;50.60;;;;;;5040249;28;20587;-67
2022/03/01 11:41:41;;;;;;;10.40;9.37;;;15.60;50.70;;;;;;5036570;28;20789;-68
2022/03/01 11:44:08;;;;;;;10.97;9.60;;;16.20;45.60;;;;;;5036777;28;20883;-67
2022/03/01 11:46:42;;;;;;;9.77;8.93;;;15.60;44.10;;;;;;5028964;28;20829;-66
2022/03/01 11:49:10;;;;;;;11.47;9.47;;;16.20;43.20;;;;;;5026818;28;20488;-68
2022/03/01 11:51:45;;;;;;;10.47;9.37;;;15.60;41.70;;;;;;5026422;28;20428;-69
2022/03/01 11:54:15;;;;;;;8.23;6.80;;;15.80;43.30;;;;;;5028043;28;20412;-68
2022/03/01 11:56:42;;;;;;;10.57;7.90;;;15.80;39.50;;;;;;5028545;28;20425;-67
2022/03/01 11:59:12;;;;;;;9.37;8.33;;;16.20;39.40;;;;;;5026932;28;21167;-66
2022/03/01 12:01:39;;;;;;;9.87;7.67;;;16.50;38.50;;;;;;5031289;28;20890;-68
2022/03/01 12:04:07;;;;;;;10.63;8.40;;;17.00;37.40;;;;;;5036984;28;20395;-68
2022/03/01 12:06:35;;;;;;;8.87;7.97;;;18.00;37.40;;;;;;5035312;28;20823;-68
2022/03/01 12:09:04;;;;;;;20.77;14.00;;;18.50;36.70;;;;;;5036414;28;20443;-71
2022/03/01 12:11:42;;;;;;;9.67;8.10;;;18.20;36.70;;;;;;5037097;28;20417;-68
2022/03/01 12:14:17;;;;;;;9.80;7.93;;;15.90;39.10;;;;;;5037750;28;20410;-69
2022/03/01 12:16:44;;;;;;;8.90;7.70;;;14.90;40.00;;;;;;5038998;28;20396;-69
2022/03/01 12:19:17;;;;;;;12.87;9.60;;;14.80;40.00;;;;;;5037935;28;20473;-67
2022/03/01 12:21:54;;;;;;;11.80;8.70;;;13.70;42.20;;;;;;5031442;28;20436;-67
2022/03/01 12:24:24;;;;;;;9.73;8.60;;;13.20;41.70;;;;;;5029593;28;20443;-69
2022/03/01 12:27:02;;;;;;;10.30;8.97;;;12.60;42.80;;;;;;5030567;28;20421;-67
2022/03/01 12:29:30;;;;;;;10.03;8.03;;;12.30;44.30;;;;;;5040520;28;20980;-69
2022/03/01 12:32:05;;;;;;;11.30;8.03;;;13.10;43.60;;;;;;5032031;28;20419;-69
2022/03/01 12:34:33;;;;;;;11.63;9.83;;;13.80;42.90;;;;;;5031066;28;20648;-68
2022/03/01 12:37:02;;;;;;;13.70;9.27;;;15.60;41.00;;;;;;5028980;28;20432;-68
2022/03/01 12:39:31;;;;;;;11.67;9.70;;;16.80;39.80;;;;;;5031763;28;20497;-70